EKO weather

Elko Regional Airport
Elko, Nevada, United States

Public forecast

Using degrees Fahrenheit for public forecast. Weather courtesy of forecast.io.

Current aviation weather report (METAR) for Elko Regional Airport

Retrieved 2020/01/26 23:28 UTC (0 seconds ago):

KEKO 262328Z AUTO 26006KT 4SM -RA BR SCT015 OVC021 04/02 A3005 RMK AO2 P0012 T00390017

Aviation forecast (TAF) for Elko Regional Airport

Retrieved 2020/01/26 18:39 UTC (5 hours ago):

TAF KEKO 261736Z 2618/2718 VRB03KT P6SM VCSH OVC060 FM261900 21005KT P6SM -SHRASN SCT025 OVC035 TEMPO 2620/2621 5SM -RA OVC025 FM262100 21005KT 5SM -SHRA SCT015 OVC025 TEMPO 2622/2624 24005KT 2SM BR FEW008 OVC015 FM270000 VRB03KT 3SM -RASN FEW008 OVC015 FM270200 VRB03KT P6SM SCT008 OVC015 FM271400 VRB03KT P6SM SCT080